sensor_id;sensor_type;location;lat;lon;timestamp;temperature;humidity
20512;DHT22;10414;52.074;5.126;2022-10-16T00:01:06;14.40;99.90
20512;DHT22;10414;52.074;5.126;2022-10-16T00:03:34;14.20;99.90
20512;DHT22;10414;52.074;5.126;2022-10-16T00:06:01;14.20;99.90
20512;DHT22;10414;52.074;5.126;2022-10-16T00:08:28;14.20;99.90
20512;DHT22;10414;52.074;5.126;2022-10-16T00:10:58;14.30;99.90
20512;DHT22;10414;52.074;5.126;2022-10-16T00:13:25;14.20;99.90
20512;DHT22;10414;52.074;5.126;2022-10-16T00:15:54;14.20;99.90
20512;DHT22;10414;52.074;5.126;2022-10-16T00:18:21;14.20;99.90
20512;DHT22;10414;52.074;5.126;2022-10-16T00:20:49;14.20;99.90
20512;DHT22;10414;52.074;5.126;2022-10-16T00:23:15;14.30;99.90
20512;DHT22;10414;52.074;5.126;2022-10-16T00:25:42;14.30;99.90
20512;DHT22;10414;52.074;5.126;2022-10-16T00:28:09;14.40;99.90
20512;DHT22;10414;52.074;5.126;2022-10-16T00:30:37;14.30;99.90
20512;DHT22;10414;52.074;5.126;2022-10-16T00:33:04;14.30;99.90
20512;DHT22;10414;52.074;5.126;2022-10-16T00:35:31;14.30;99.90
20512;DHT22;10414;52.074;5.126;2022-10-16T00:37:59;14.60;99.90
20512;DHT22;10414;52.074;5.126;2022-10-16T00:40:25;14.40;99.90
20512;DHT22;10414;52.074;5.126;2022-10-16T00:42:53;14.50;99.90
20512;DHT22;10414;52.074;5.126;2022-10-16T00:45:20;14.60;99.90
20512;DHT22;10414;52.074;5.126;2022-10-16T00:47:49;14.50;99.90
20512;DHT22;10414;52.074;5.126;2022-10-16T00:50:18;14.40;99.90
20512;DHT22;10414;52.074;5.126;2022-10-16T00:52:48;14.40;99.90
20512;DHT22;10414;52.074;5.126;2022-10-16T00:55:17;14.40;99.90
20512;DHT22;10414;52.074;5.126;2022-10-16T00:57:44;14.40;99.90
20512;DHT22;10414;52.074;5.126;2022-10-16T01:00:13;14.60;99.90
20512;DHT22;10414;52.074;5.126;2022-10-16T01:02:39;14.50;99.90
20512;DHT22;10414;52.074;5.126;2022-10-16T01:05:06;14.50;99.90
20512;DHT22;10414;52.074;5.126;2022-10-16T01:07:37;14.50;99.90
20512;DHT22;10414;52.074;5.126;2022-10-16T01:10:07;14.60;99.90
20512;DHT22;10414;52.074;5.126;2022-10-16T01:12:40;14.60;99.90
20512;DHT22;10414;52.074;5.126;2022-10-16T01:15:09;14.60;99.90
20512;DHT22;10414;52.074;5.126;2022-10-16T01:17:38;14.60;99.90
20512;DHT22;10414;52.074;5.126;2022-10-16T01:20:08;14.60;99.90
20512;DHT22;10414;52.074;5.126;2022-10-16T01:22:47;14.60;99.90
20512;DHT22;10414;52.074;5.126;2022-10-16T01:25:17;14.80;99.90
20512;DHT22;10414;52.074;5.126;2022-10-16T01:27:46;14.60;99.90
20512;DHT22;10414;52.074;5.126;2022-10-16T01:30:15;14.60;99.90
20512;DHT22;10414;52.074;5.126;2022-10-16T01:32:45;14.60;99.90
20512;DHT22;10414;52.074;5.126;2022-10-16T01:35:14;14.60;99.90
20512;DHT22;10414;52.074;5.126;2022-10-16T01:37:42;14.60;99.90
20512;DHT22;10414;52.074;5.126;2022-10-16T01:40:13;14.60;99.90
20512;DHT22;10414;52.074;5.126;2022-10-16T01:42:41;14.60;99.90
20512;DHT22;10414;52.074;5.126;2022-10-16T01:45:11;14.60;99.90
20512;DHT22;10414;52.074;5.126;2022-10-16T01:47:39;14.60;99.90
20512;DHT22;10414;52.074;5.126;2022-10-16T01:50:07;14.50;99.90
20512;DHT22;10414;52.074;5.126;2022-10-16T01:52:34;14.30;99.90
20512;DHT22;10414;52.074;5.126;2022-10-16T01:55:02;14.40;99.90
20512;DHT22;10414;52.074;5.126;2022-10-16T01:57:30;14.40;99.90
20512;DHT22;10414;52.074;5.126;2022-10-16T02:00:00;14.50;99.90
20512;DHT22;10414;52.074;5.126;2022-10-16T02:02:29;14.40;99.90
20512;DHT22;10414;52.074;5.126;2022-10-16T02:04:58;14.40;99.90
20512;DHT22;10414;52.074;5.126;2022-10-16T02:07:28;14.40;99.90
20512;DHT22;10414;52.074;5.126;2022-10-16T02:09:54;14.40;99.90
20512;DHT22;10414;52.074;5.126;2022-10-16T02:12:24;14.40;99.90
20512;DHT22;10414;52.074;5.126;2022-10-16T02:14:52;14.30;99.90
20512;DHT22;10414;52.074;5.126;2022-10-16T02:17:19;14.20;99.90
20512;DHT22;10414;52.074;5.126;2022-10-16T02:19:47;14.10;99.90
20512;DHT22;10414;52.074;5.126;2022-10-16T02:22:15;14.20;99.90
20512;DHT22;10414;52.074;5.126;2022-10-16T02:24:43;14.10;99.90
20512;DHT22;10414;52.074;5.126;2022-10-16T02:27:13;14.10;99.90
20512;DHT22;10414;52.074;5.126;2022-10-16T02:29:42;14.00;99.90
20512;DHT22;10414;52.074;5.126;2022-10-16T02:32:13;14.00;99.90
20512;DHT22;10414;52.074;5.126;2022-10-16T02:34:42;14.00;99.90
20512;DHT22;10414;52.074;5.126;2022-10-16T02:37:11;13.90;99.90
20512;DHT22;10414;52.074;5.126;2022-10-16T02:39:38;14.00;99.90
20512;DHT22;10414;52.074;5.126;2022-10-16T02:42:09;13.90;99.90
20512;DHT22;10414;52.074;5.126;2022-10-16T02:44:36;14.00;99.90
20512;DHT22;10414;52.074;5.126;2022-10-16T02:47:02;14.00;99.90
20512;DHT22;10414;52.074;5.126;2022-10-16T02:49:29;14.00;99.90
20512;DHT22;10414;52.074;5.126;2022-10-16T02:51:56;14.00;99.90
20512;DHT22;10414;52.074;5.126;2022-10-16T02:54:24;14.00;99.90
20512;DHT22;10414;52.074;5.126;2022-10-16T02:56:51;14.20;99.90
20512;DHT22;10414;52.074;5.126;2022-10-16T02:59:18;14.10;99.90
20512;DHT22;10414;52.074;5.126;2022-10-16T03:01:44;14.10;99.90
20512;DHT22;10414;52.074;5.126;2022-10-16T03:04:11;14.10;99.90
20512;DHT22;10414;52.074;5.126;2022-10-16T03:06:38;14.10;99.90
20512;DHT22;10414;52.074;5.126;2022-10-16T03:09:05;14.10;99.90
20512;DHT22;10414;52.074;5.126;2022-10-16T03:11:33;14.10;99.90
20512;DHT22;10414;52.074;5.126;2022-10-16T03:13:59;14.10;99.90
20512;DHT22;10414;52.074;5.126;2022-10-16T03:16:26;14.10;99.90
20512;DHT22;10414;52.074;5.126;2022-10-16T03:18:53;14.10;99.90
20512;DHT22;10414;52.074;5.126;2022-10-16T03:21:19;14.00;99.90
20512;DHT22;10414;52.074;5.126;2022-10-16T03:23:46;14.00;99.90
20512;DHT22;10414;52.074;5.126;2022-10-16T03:26:13;14.00;99.90
20512;DHT22;10414;52.074;5.126;2022-10-16T03:28:41;14.00;99.90
20512;DHT22;10414;52.074;5.126;2022-10-16T03:31:08;14.00;99.90
20512;DHT22;10414;52.074;5.126;2022-10-16T03:33:35;13.90;99.90
20512;DHT22;10414;52.074;5.126;2022-10-16T03:36:02;13.80;99.90
20512;DHT22;10414;52.074;5.126;2022-10-16T03:38:28;13.80;99.90
20512;DHT22;10414;52.074;5.126;2022-10-16T03:40:55;13.80;99.90
20512;DHT22;10414;52.074;5.126;2022-10-16T03:43:22;13.70;99.90
20512;DHT22;10414;52.074;5.126;2022-10-16T03:45:51;13.70;99.90
20512;DHT22;10414;52.074;5.126;2022-10-16T03:48:18;13.70;99.90
20512;DHT22;10414;52.074;5.126;2022-10-16T03:50:44;13.80;99.90
20512;DHT22;10414;52.074;5.126;2022-10-16T03:53:11;13.80;99.90
20512;DHT22;10414;52.074;5.126;2022-10-16T03:55:38;13.80;99.90
20512;DHT22;10414;52.074;5.126;2022-10-16T03:58:07;13.80;99.90
20512;DHT22;10414;52.074;5.126;2022-10-16T04:00:33;13.80;99.90
20512;DHT22;10414;52.074;5.126;2022-10-16T04:03:02;13.80;99.90
20512;DHT22;10414;52.074;5.126;2022-10-16T04:05:29;13.90;99.90
20512;DHT22;10414;52.074;5.126;2022-10-16T04:07:55;13.70;99.90
20512;DHT22;10414;52.074;5.126;2022-10-16T04:10:22;13.70;99.90
20512;DHT22;10414;52.074;5.126;2022-10-16T04:12:49;13.70;99.90
20512;DHT22;10414;52.074;5.126;2022-10-16T04:15:15;13.60;99.90
20512;DHT22;10414;52.074;5.126;2022-10-16T04:17:44;13.70;99.90
20512;DHT22;10414;52.074;5.126;2022-10-16T04:20:12;13.60;99.90
20512;DHT22;10414;52.074;5.126;2022-10-16T04:22:39;13.70;99.90
20512;DHT22;10414;52.074;5.126;2022-10-16T04:25:05;13.60;99.90
20512;DHT22;10414;52.074;5.126;2022-10-16T04:27:32;13.80;99.90
20512;DHT22;10414;52.074;5.126;2022-10-16T04:29:59;13.80;99.90
20512;DHT22;10414;52.074;5.126;2022-10-16T04:32:26;13.70;99.90
20512;DHT22;10414;52.074;5.126;2022-10-16T04:34:53;13.70;99.90
20512;DHT22;10414;52.074;5.126;2022-10-16T04:37:24;13.80;99.90
20512;DHT22;10414;52.074;5.126;2022-10-16T04:39:51;13.70;99.90
20512;DHT22;10414;52.074;5.126;2022-10-16T04:42:18;13.60;99.90
20512;DHT22;10414;52.074;5.126;2022-10-16T04:44:45;13.90;99.90
20512;DHT22;10414;52.074;5.126;2022-10-16T04:47:11;13.70;99.90
20512;DHT22;10414;52.074;5.126;2022-10-16T04:49:38;13.70;99.90
20512;DHT22;10414;52.074;5.126;2022-10-16T04:52:05;13.70;99.90
20512;DHT22;10414;52.074;5.126;2022-10-16T04:54:33;13.60;99.90
20512;DHT22;10414;52.074;5.126;2022-10-16T04:57:00;13.60;99.90
20512;DHT22;10414;52.074;5.126;2022-10-16T04:59:27;13.50;99.90
20512;DHT22;10414;52.074;5.126;2022-10-16T05:01:54;13.40;99.90
20512;DHT22;10414;52.074;5.126;2022-10-16T05:04:20;13.50;99.90
20512;DHT22;10414;52.074;5.126;2022-10-16T05:06:47;13.40;99.90
20512;DHT22;10414;52.074;5.126;2022-10-16T05:09:14;13.40;99.90
20512;DHT22;10414;52.074;5.126;2022-10-16T05:11:42;13.40;99.90
20512;DHT22;10414;52.074;5.126;2022-10-16T05:14:09;13.50;99.90
20512;DHT22;10414;52.074;5.126;2022-10-16T05:16:36;13.50;99.90
20512;DHT22;10414;52.074;5.126;2022-10-16T05:19:02;13.40;99.90
20512;DHT22;10414;52.074;5.126;2022-10-16T05:21:29;13.50;99.90
20512;DHT22;10414;52.074;5.126;2022-10-16T05:23:56;13.30;99.90
20512;DHT22;10414;52.074;5.126;2022-10-16T05:26:23;13.50;99.90
20512;DHT22;10414;52.074;5.126;2022-10-16T05:28:51;13.50;99.90
20512;DHT22;10414;52.074;5.126;2022-10-16T05:31:18;13.50;99.90
20512;DHT22;10414;52.074;5.126;2022-10-16T05:33:45;13.50;99.90
20512;DHT22;10414;52.074;5.126;2022-10-16T05:36:11;13.50;99.90
20512;DHT22;10414;52.074;5.126;2022-10-16T05:38:38;13.60;99.90
20512;DHT22;10414;52.074;5.126;2022-10-16T05:41:05;13.50;99.90
20512;DHT22;10414;52.074;5.126;2022-10-16T05:43:32;13.60;99.90
20512;DHT22;10414;52.074;5.126;2022-10-16T05:46:01;13.70;99.90
20512;DHT22;10414;52.074;5.126;2022-10-16T05:48:28;13.70;99.90
20512;DHT22;10414;52.074;5.126;2022-10-16T05:50:58;13.80;99.90
20512;DHT22;10414;52.074;5.126;2022-10-16T05:53:25;13.80;99.90
20512;DHT22;10414;52.074;5.126;2022-10-16T05:55:53;13.80;99.90
20512;DHT22;10414;52.074;5.126;2022-10-16T05:58:20;13.80;99.90
20512;DHT22;10414;52.074;5.126;2022-10-16T06:00:52;13.90;99.90
20512;DHT22;10414;52.074;5.126;2022-10-16T06:03:20;13.80;99.90
20512;DHT22;10414;52.074;5.126;2022-10-16T06:05:47;13.90;99.90
20512;DHT22;10414;52.074;5.126;2022-10-16T06:08:17;13.90;99.90
20512;DHT22;10414;52.074;5.126;2022-10-16T06:10:44;14.10;99.90
20512;DHT22;10414;52.074;5.126;2022-10-16T06:13:12;13.90;99.90
20512;DHT22;10414;52.074;5.126;2022-10-16T06:15:39;13.80;99.90
20512;DHT22;10414;52.074;5.126;2022-10-16T06:18:07;13.90;99.90
20512;DHT22;10414;52.074;5.126;2022-10-16T06:20:35;14.10;99.90
20512;DHT22;10414;52.074;5.126;2022-10-16T06:23:02;14.00;99.90
20512;DHT22;10414;52.074;5.126;2022-10-16T06:25:29;14.00;99.90
20512;DHT22;10414;52.074;5.126;2022-10-16T06:27:56;13.80;99.90
20512;DHT22;10414;52.074;5.126;2022-10-16T06:30:23;13.80;99.90
20512;DHT22;10414;52.074;5.126;2022-10-16T06:32:49;13.70;99.90
20512;DHT22;10414;52.074;5.126;2022-10-16T06:35:16;13.70;99.90
20512;DHT22;10414;52.074;5.126;2022-10-16T06:37:44;13.70;99.90
20512;DHT22;10414;52.074;5.126;2022-10-16T06:40:11;13.80;99.90
20512;DHT22;10414;52.074;5.126;2022-10-16T06:42:42;13.70;99.90
20512;DHT22;10414;52.074;5.126;2022-10-16T06:45:09;13.70;99.90
20512;DHT22;10414;52.074;5.126;2022-10-16T06:47:36;13.70;99.90
20512;DHT22;10414;52.074;5.126;2022-10-16T06:50:03;13.70;99.90
20512;DHT22;10414;52.074;5.126;2022-10-16T06:52:32;13.70;99.90
20512;DHT22;10414;52.074;5.126;2022-10-16T06:55:00;13.70;99.90
20512;DHT22;10414;52.074;5.126;2022-10-16T06:57:28;13.70;99.90
20512;DHT22;10414;52.074;5.126;2022-10-16T06:59:55;13.80;99.90
20512;DHT22;10414;52.074;5.126;2022-10-16T07:02:21;14.00;99.90
20512;DHT22;10414;52.074;5.126;2022-10-16T07:04:48;14.00;99.90
20512;DHT22;10414;52.074;5.126;2022-10-16T07:07:15;14.10;99.90
20512;DHT22;10414;52.074;5.126;2022-10-16T07:09:42;14.00;99.90
20512;DHT22;10414;52.074;5.126;2022-10-16T07:12:10;14.10;99.90
20512;DHT22;10414;52.074;5.126;2022-10-16T07:14:37;14.20;99.90
20512;DHT22;10414;52.074;5.126;2022-10-16T07:17:03;14.30;99.90
20512;DHT22;10414;52.074;5.126;2022-10-16T07:19:30;14.30;99.90
20512;DHT22;10414;52.074;5.126;2022-10-16T07:21:57;14.40;99.90
20512;DHT22;10414;52.074;5.126;2022-10-16T07:24:23;14.50;99.90
20512;DHT22;10414;52.074;5.126;2022-10-16T07:26:50;14.60;99.90
20512;DHT22;10414;52.074;5.126;2022-10-16T07:29:19;14.70;99.90
20512;DHT22;10414;52.074;5.126;2022-10-16T07:31:46;14.90;99.90
20512;DHT22;10414;52.074;5.126;2022-10-16T07:34:14;15.20;99.90
20512;DHT22;10414;52.074;5.126;2022-10-16T07:36:41;15.50;99.90
20512;DHT22;10414;52.074;5.126;2022-10-16T07:39:08;15.60;99.90
20512;DHT22;10414;52.074;5.126;2022-10-16T07:41:35;15.70;99.90
20512;DHT22;10414;52.074;5.126;2022-10-16T07:44:02;16.00;99.90
20512;DHT22;10414;52.074;5.126;2022-10-16T07:46:30;16.50;99.90
20512;DHT22;10414;52.074;5.126;2022-10-16T07:49:01;18.10;99.90
20512;DHT22;10414;52.074;5.126;2022-10-16T07:51:28;20.00;99.90
20512;DHT22;10414;52.074;5.126;2022-10-16T07:53:55;21.60;99.90
20512;DHT22;10414;52.074;5.126;2022-10-16T07:56:22;23.40;99.90
20512;DHT22;10414;52.074;5.126;2022-10-16T07:58:49;23.10;99.90
20512;DHT22;10414;52.074;5.126;2022-10-16T08:01:16;22.50;99.90
20512;DHT22;10414;52.074;5.126;2022-10-16T08:03:45;22.50;99.90
20512;DHT22;10414;52.074;5.126;2022-10-16T08:06:12;22.40;99.90
20512;DHT22;10414;52.074;5.126;2022-10-16T08:08:39;22.20;99.90
20512;DHT22;10414;52.074;5.126;2022-10-16T08:11:06;22.50;99.90
20512;DHT22;10414;52.074;5.126;2022-10-16T08:13:33;22.50;99.90
20512;DHT22;10414;52.074;5.126;2022-10-16T08:16:00;22.30;99.90
20512;DHT22;10414;52.074;5.126;2022-10-16T08:18:28;22.70;99.90
20512;DHT22;10414;52.074;5.126;2022-10-16T08:20:57;23.20;99.90
20512;DHT22;10414;52.074;5.126;2022-10-16T08:23:24;24.20;99.90
20512;DHT22;10414;52.074;5.126;2022-10-16T08:25:51;24.50;99.90
20512;DHT22;10414;52.074;5.126;2022-10-16T08:28:18;23.90;99.90
20512;DHT22;10414;52.074;5.126;2022-10-16T08:30:45;24.90;99.90
20512;DHT22;10414;52.074;5.126;2022-10-16T08:33:12;24.40;99.90
20512;DHT22;10414;52.074;5.126;2022-10-16T08:35:39;25.00;99.90
20512;DHT22;10414;52.074;5.126;2022-10-16T08:38:07;26.50;99.90
20512;DHT22;10414;52.074;5.126;2022-10-16T08:40:34;25.80;99.90
20512;DHT22;10414;52.074;5.126;2022-10-16T08:43:06;25.50;99.90
20512;DHT22;10414;52.074;5.126;2022-10-16T08:45:43;25.60;99.90
20512;DHT22;10414;52.074;5.126;2022-10-16T08:48:17;25.90;99.90
20512;DHT22;10414;52.074;5.126;2022-10-16T08:50:46;25.60;99.90
20512;DHT22;10414;52.074;5.126;2022-10-16T08:53:17;26.30;99.90
20512;DHT22;10414;52.074;5.126;2022-10-16T08:55:45;25.80;99.90
20512;DHT22;10414;52.074;5.126;2022-10-16T08:58:13;25.40;99.90
20512;DHT22;10414;52.074;5.126;2022-10-16T09:00:40;24.70;99.90
20512;DHT22;10414;52.074;5.126;2022-10-16T09:03:11;24.50;99.90
20512;DHT22;10414;52.074;5.126;2022-10-16T09:05:49;24.70;99.90
20512;DHT22;10414;52.074;5.126;2022-10-16T09:08:21;24.70;99.90
20512;DHT22;10414;52.074;5.126;2022-10-16T09:10:55;25.80;99.90
20512;DHT22;10414;52.074;5.126;2022-10-16T09:13:23;25.90;99.90
20512;DHT22;10414;52.074;5.126;2022-10-16T09:15:54;25.70;99.90
20512;DHT22;10414;52.074;5.126;2022-10-16T09:18:23;25.40;99.90
20512;DHT22;10414;52.074;5.126;2022-10-16T09:20:53;25.60;99.90
20512;DHT22;10414;52.074;5.126;2022-10-16T09:23:26;25.20;99.90
20512;DHT22;10414;52.074;5.126;2022-10-16T09:25:53;25.30;99.90
20512;DHT22;10414;52.074;5.126;2022-10-16T09:28:21;25.20;99.90
20512;DHT22;10414;52.074;5.126;2022-10-16T09:30:48;24.20;99.90
20512;DHT22;10414;52.074;5.126;2022-10-16T09:33:15;24.30;99.90
20512;DHT22;10414;52.074;5.126;2022-10-16T09:35:44;23.40;99.90
20512;DHT22;10414;52.074;5.126;2022-10-16T09:38:20;23.60;99.90
20512;DHT22;10414;52.074;5.126;2022-10-16T09:40:48;25.00;99.90
20512;DHT22;10414;52.074;5.126;2022-10-16T09:43:19;23.90;99.90
20512;DHT22;10414;52.074;5.126;2022-10-16T09:45:56;23.20;99.90
20512;DHT22;10414;52.074;5.126;2022-10-16T09:48:23;23.60;99.90
20512;DHT22;10414;52.074;5.126;2022-10-16T09:50:58;22.90;99.90
20512;DHT22;10414;52.074;5.126;2022-10-16T09:53:25;22.60;99.90
20512;DHT22;10414;52.074;5.126;2022-10-16T09:55:54;22.50;99.90
20512;DHT22;10414;52.074;5.126;2022-10-16T09:58:21;22.80;99.90
20512;DHT22;10414;52.074;5.126;2022-10-16T10:00:48;23.50;99.90
20512;DHT22;10414;52.074;5.126;2022-10-16T10:03:19;23.50;99.90
20512;DHT22;10414;52.074;5.126;2022-10-16T10:05:54;25.00;99.90
20512;DHT22;10414;52.074;5.126;2022-10-16T10:08:21;24.70;99.90
20512;DHT22;10414;52.074;5.126;2022-10-16T10:10:47;24.80;99.90
20512;DHT22;10414;52.074;5.126;2022-10-16T10:13:18;25.10;99.90
20512;DHT22;10414;52.074;5.126;2022-10-16T10:15:45;24.20;99.90
20512;DHT22;10414;52.074;5.126;2022-10-16T10:18:16;24.20;99.90
20512;DHT22;10414;52.074;5.126;2022-10-16T10:20:43;25.30;99.90
20512;DHT22;10414;52.074;5.126;2022-10-16T10:23:19;25.90;99.90
20512;DHT22;10414;52.074;5.126;2022-10-16T10:25:49;25.90;99.90
20512;DHT22;10414;52.074;5.126;2022-10-16T10:28:25;24.90;99.90
20512;DHT22;10414;52.074;5.126;2022-10-16T10:30:57;24.50;99.90
20512;DHT22;10414;52.074;5.126;2022-10-16T10:33:28;23.40;99.90
20512;DHT22;10414;52.074;5.126;2022-10-16T10:36:00;22.40;99.90
20512;DHT22;10414;52.074;5.126;2022-10-16T10:38:30;23.00;99.90
20512;DHT22;10414;52.074;5.126;2022-10-16T10:41:03;23.50;99.90
20512;DHT22;10414;52.074;5.126;2022-10-16T10:43:40;24.20;99.90
20512;DHT22;10414;52.074;5.126;2022-10-16T10:46:11;23.40;99.90
20512;DHT22;10414;52.074;5.126;2022-10-16T10:48:44;22.70;99.90
20512;DHT22;10414;52.074;5.126;2022-10-16T10:51:15;23.80;99.90
20512;DHT22;10414;52.074;5.126;2022-10-16T10:53:48;25.10;99.90
20512;DHT22;10414;52.074;5.126;2022-10-16T10:56:24;25.50;99.90
20512;DHT22;10414;52.074;5.126;2022-10-16T10:59:04;24.50;99.90
20512;DHT22;10414;52.074;5.126;2022-10-16T11:01:35;24.40;99.90
20512;DHT22;10414;52.074;5.126;2022-10-16T11:04:15;24.20;99.90
20512;DHT22;10414;52.074;5.126;2022-10-16T11:06:46;23.90;99.90
20512;DHT22;10414;52.074;5.126;2022-10-16T11:09:15;23.10;99.90
20512;DHT22;10414;52.074;5.126;2022-10-16T11:11:43;22.50;99.90
20512;DHT22;10414;52.074;5.126;2022-10-16T11:14:14;21.80;99.90
20512;DHT22;10414;52.074;5.126;2022-10-16T11:16:42;22.30;99.90
20512;DHT22;10414;52.074;5.126;2022-10-16T11:19:12;22.60;99.90
20512;DHT22;10414;52.074;5.126;2022-10-16T11:21:42;21.90;99.90
20512;DHT22;10414;52.074;5.126;2022-10-16T11:24:14;22.10;99.90
20512;DHT22;10414;52.074;5.126;2022-10-16T11:26:43;21.80;99.90
20512;DHT22;10414;52.074;5.126;2022-10-16T11:29:11;21.40;99.90
20512;DHT22;10414;52.074;5.126;2022-10-16T11:31:42;21.10;99.90
20512;DHT22;10414;52.074;5.126;2022-10-16T11:34:11;21.30;99.90
20512;DHT22;10414;52.074;5.126;2022-10-16T11:36:43;21.10;99.90
20512;DHT22;10414;52.074;5.126;2022-10-16T11:39:15;20.90;99.90
20512;DHT22;10414;52.074;5.126;2022-10-16T11:41:44;20.70;99.90
20512;DHT22;10414;52.074;5.126;2022-10-16T11:44:20;20.80;99.90
20512;DHT22;10414;52.074;5.126;2022-10-16T11:46:52;20.90;99.90
20512;DHT22;10414;52.074;5.126;2022-10-16T11:49:25;20.80;99.90
20512;DHT22;10414;52.074;5.126;2022-10-16T11:51:55;20.40;99.90
20512;DHT22;10414;52.074;5.126;2022-10-16T11:54:26;20.10;99.90
20512;DHT22;10414;52.074;5.126;2022-10-16T11:57:08;20.10;99.90
20512;DHT22;10414;52.074;5.126;2022-10-16T11:59:38;20.00;99.90
20512;DHT22;10414;52.074;5.126;2022-10-16T12:02:25;20.00;99.90
20512;DHT22;10414;52.074;5.126;2022-10-16T12:04:55;19.90;99.90
20512;DHT22;10414;52.074;5.126;2022-10-16T12:07:27;20.00;99.90
20512;DHT22;10414;52.074;5.126;2022-10-16T12:09:56;20.00;99.90
20512;DHT22;10414;52.074;5.126;2022-10-16T12:12:26;20.00;99.90
20512;DHT22;10414;52.074;5.126;2022-10-16T12:14:59;20.10;99.90
20512;DHT22;10414;52.074;5.126;2022-10-16T12:17:34;19.90;99.90
20512;DHT22;10414;52.074;5.126;2022-10-16T12:20:12;20.00;99.90
20512;DHT22;10414;52.074;5.126;2022-10-16T12:22:41;19.90;99.90
20512;DHT22;10414;52.074;5.126;2022-10-16T12:25:19;19.60;99.90
20512;DHT22;10414;52.074;5.126;2022-10-16T12:27:52;19.40;99.90
20512;DHT22;10414;52.074;5.126;2022-10-16T12:30:20;19.60;99.90
20512;DHT22;10414;52.074;5.126;2022-10-16T12:32:54;20.00;99.90
20512;DHT22;10414;52.074;5.126;2022-10-16T12:35:22;20.10;99.90
20512;DHT22;10414;52.074;5.126;2022-10-16T12:37:50;20.00;99.90
20512;DHT22;10414;52.074;5.126;2022-10-16T12:40:23;19.80;99.90
20512;DHT22;10414;52.074;5.126;2022-10-16T12:42:51;19.70;99.90
20512;DHT22;10414;52.074;5.126;2022-10-16T12:45:25;19.50;99.90
20512;DHT22;10414;52.074;5.126;2022-10-16T12:47:54;19.50;99.90
20512;DHT22;10414;52.074;5.126;2022-10-16T12:53:17;19.60;99.90
20512;DHT22;10414;52.074;5.126;2022-10-16T12:55:46;19.50;99.90
20512;DHT22;10414;52.074;5.126;2022-10-16T12:58:24;19.50;99.90
20512;DHT22;10414;52.074;5.126;2022-10-16T13:00:56;19.50;99.90
20512;DHT22;10414;52.074;5.126;2022-10-16T13:03:38;19.40;99.90
20512;DHT22;10414;52.074;5.126;2022-10-16T13:06:12;19.50;99.90
20512;DHT22;10414;52.074;5.126;2022-10-16T13:11:35;19.30;99.90
20512;DHT22;10414;52.074;5.126;2022-10-16T13:14:07;19.20;99.90
20512;DHT22;10414;52.074;5.126;2022-10-16T13:16:40;19.40;99.90
20512;DHT22;10414;52.074;5.126;2022-10-16T13:19:13;19.60;99.90
20512;DHT22;10414;52.074;5.126;2022-10-16T13:21:44;19.70;99.90
20512;DHT22;10414;52.074;5.126;2022-10-16T13:24:18;19.80;99.90
20512;DHT22;10414;52.074;5.126;2022-10-16T13:26:49;19.60;99.90
20512;DHT22;10414;52.074;5.126;2022-10-16T13:29:19;19.60;99.90
20512;DHT22;10414;52.074;5.126;2022-10-16T13:31:46;19.70;99.90
20512;DHT22;10414;52.074;5.126;2022-10-16T13:34:17;19.70;99.90
20512;DHT22;10414;52.074;5.126;2022-10-16T13:36:45;19.80;99.90
20512;DHT22;10414;52.074;5.126;2022-10-16T13:39:13;19.90;99.90
20512;DHT22;10414;52.074;5.126;2022-10-16T13:41:42;19.90;99.90
20512;DHT22;10414;52.074;5.126;2022-10-16T13:44:13;20.00;99.90
20512;DHT22;10414;52.074;5.126;2022-10-16T13:46:41;19.90;99.90
20512;DHT22;10414;52.074;5.126;2022-10-16T13:49:11;19.80;99.90
20512;DHT22;10414;52.074;5.126;2022-10-16T13:51:39;19.80;99.90
20512;DHT22;10414;52.074;5.126;2022-10-16T13:54:07;20.00;99.90
20512;DHT22;10414;52.074;5.126;2022-10-16T13:56:35;19.90;99.90
20512;DHT22;10414;52.074;5.126;2022-10-16T13:59:02;20.00;99.90
20512;DHT22;10414;52.074;5.126;2022-10-16T14:01:30;19.90;99.90
20512;DHT22;10414;52.074;5.126;2022-10-16T14:04:01;19.70;99.90
20512;DHT22;10414;52.074;5.126;2022-10-16T14:06:28;19.40;99.90
20512;DHT22;10414;52.074;5.126;2022-10-16T14:09:02;19.70;99.90
20512;DHT22;10414;52.074;5.126;2022-10-16T14:11:31;19.60;99.90
20512;DHT22;10414;52.074;5.126;2022-10-16T14:13:59;19.60;99.90
20512;DHT22;10414;52.074;5.126;2022-10-16T14:16:27;19.60;99.90
20512;DHT22;10414;52.074;5.126;2022-10-16T14:18:56;19.60;99.90
20512;DHT22;10414;52.074;5.126;2022-10-16T14:21:24;19.60;99.90
20512;DHT22;10414;52.074;5.126;2022-10-16T14:23:52;19.50;99.90
20512;DHT22;10414;52.074;5.126;2022-10-16T14:26:21;19.70;99.90
20512;DHT22;10414;52.074;5.126;2022-10-16T14:28:49;19.90;99.90
20512;DHT22;10414;52.074;5.126;2022-10-16T14:31:27;20.10;99.90
20512;DHT22;10414;52.074;5.126;2022-10-16T14:33:54;20.20;99.90
20512;DHT22;10414;52.074;5.126;2022-10-16T14:36:21;20.00;99.90
20512;DHT22;10414;52.074;5.126;2022-10-16T14:38:49;19.80;99.90
20512;DHT22;10414;52.074;5.126;2022-10-16T14:41:21;19.80;99.90
20512;DHT22;10414;52.074;5.126;2022-10-16T14:43:49;20.30;99.90
20512;DHT22;10414;52.074;5.126;2022-10-16T14:46:17;19.90;99.90
20512;DHT22;10414;52.074;5.126;2022-10-16T14:48:45;19.80;99.90
20512;DHT22;10414;52.074;5.126;2022-10-16T14:51:13;19.60;99.90
20512;DHT22;10414;52.074;5.126;2022-10-16T14:53:40;19.60;99.90
20512;DHT22;10414;52.074;5.126;2022-10-16T14:56:07;19.70;99.90
20512;DHT22;10414;52.074;5.126;2022-10-16T14:58:35;19.60;99.90
20512;DHT22;10414;52.074;5.126;2022-10-16T15:01:02;19.70;99.90
20512;DHT22;10414;52.074;5.126;2022-10-16T15:03:32;19.70;99.90
20512;DHT22;10414;52.074;5.126;2022-10-16T15:05:59;19.80;99.90
20512;DHT22;10414;52.074;5.126;2022-10-16T15:08:25;20.10;99.90
20512;DHT22;10414;52.074;5.126;2022-10-16T15:10:52;20.00;99.90
20512;DHT22;10414;52.074;5.126;2022-10-16T15:13:19;20.00;99.90
20512;DHT22;10414;52.074;5.126;2022-10-16T15:15:47;20.00;99.90
20512;DHT22;10414;52.074;5.126;2022-10-16T15:18:14;20.00;99.90
20512;DHT22;10414;52.074;5.126;2022-10-16T15:20:45;20.20;99.90
20512;DHT22;10414;52.074;5.126;2022-10-16T15:23:15;20.00;99.90
20512;DHT22;10414;52.074;5.126;2022-10-16T15:25:42;19.80;99.90
20512;DHT22;10414;52.074;5.126;2022-10-16T15:28:09;19.80;99.90
20512;DHT22;10414;52.074;5.126;2022-10-16T15:30:36;19.90;99.90
20512;DHT22;10414;52.074;5.126;2022-10-16T15:33:05;19.80;99.90
20512;DHT22;10414;52.074;5.126;2022-10-16T15:35:36;19.70;99.90
20512;DHT22;10414;52.074;5.126;2022-10-16T15:38:03;19.60;99.90
20512;DHT22;10414;52.074;5.126;2022-10-16T15:40:29;19.50;99.90
20512;DHT22;10414;52.074;5.126;2022-10-16T15:42:56;19.30;99.90
20512;DHT22;10414;52.074;5.126;2022-10-16T15:45:23;19.30;99.90